sensor_id;sensor_type;location;lat;lon;timestamp;pressure;altitude;pressure_sealevel;temperature
15062;BMP180;7630;50.306;8.566;2022-09-23T00:08:10;98176.00;;;10.00
15062;BMP180;7630;50.306;8.566;2022-09-23T00:12:12;98170.00;;;10.00
15062;BMP180;7630;50.306;8.566;2022-09-23T00:16:17;98174.00;;;9.80
15062;BMP180;7630;50.306;8.566;2022-09-23T00:20:18;98170.00;;;9.80
15062;BMP180;7630;50.306;8.566;2022-09-23T00:24:19;98162.00;;;10.00
15062;BMP180;7630;50.306;8.566;2022-09-23T00:28:20;98169.00;;;10.20
15062;BMP180;7630;50.306;8.566;2022-09-23T00:32:21;98162.00;;;10.10
15062;BMP180;7630;50.306;8.566;2022-09-23T00:36:23;98158.00;;;10.00
15062;BMP180;7630;50.306;8.566;2022-09-23T00:40:24;98159.00;;;9.90
15062;BMP180;7630;50.306;8.566;2022-09-23T00:48:51;98154.00;;;9.80
15062;BMP180;7630;50.306;8.566;2022-09-23T00:52:56;98150.00;;;9.70
15062;BMP180;7630;50.306;8.566;2022-09-23T00:56:58;98143.00;;;9.60
15062;BMP180;7630;50.306;8.566;2022-09-23T01:01:02;98136.00;;;9.50
15062;BMP180;7630;50.306;8.566;2022-09-23T01:05:05;98136.00;;;9.40
15062;BMP180;7630;50.306;8.566;2022-09-23T01:09:07;98124.00;;;9.40
15062;BMP180;7630;50.306;8.566;2022-09-23T01:30:37;98109.00;;;9.30
15062;BMP180;7630;50.306;8.566;2022-09-23T01:34:48;98116.00;;;9.20
15062;BMP180;7630;50.306;8.566;2022-09-23T01:39:09;98113.00;;;9.20
15062;BMP180;7630;50.306;8.566;2022-09-23T01:43:18;98110.00;;;9.10
15062;BMP180;7630;50.306;8.566;2022-09-23T01:47:21;98113.00;;;9.20
15062;BMP180;7630;50.306;8.566;2022-09-23T01:51:26;98100.00;;;9.10
15062;BMP180;7630;50.306;8.566;2022-09-23T01:55:32;98105.00;;;9.10
15062;BMP180;7630;50.306;8.566;2022-09-23T01:59:37;98101.00;;;9.10
15062;BMP180;7630;50.306;8.566;2022-09-23T02:03:43;98095.00;;;9.00
15062;BMP180;7630;50.306;8.566;2022-09-23T02:07:48;98092.00;;;8.90
15062;BMP180;7630;50.306;8.566;2022-09-23T02:11:51;98090.00;;;9.00
15062;BMP180;7630;50.306;8.566;2022-09-23T02:15:56;98089.00;;;8.40
15062;BMP180;7630;50.306;8.566;2022-09-23T02:20:03;98091.00;;;8.80
15062;BMP180;7630;50.306;8.566;2022-09-23T02:24:18;98084.00;;;9.20
15062;BMP180;7630;50.306;8.566;2022-09-23T02:37:10;98076.00;;;8.80
15062;BMP180;7630;50.306;8.566;2022-09-23T02:41:16;98084.00;;;8.90
15062;BMP180;7630;50.306;8.566;2022-09-23T02:45:18;98076.00;;;8.70
15062;BMP180;7630;50.306;8.566;2022-09-23T02:49:22;98076.00;;;8.50
15062;BMP180;7630;50.306;8.566;2022-09-23T02:53:24;98074.00;;;8.60
15062;BMP180;7630;50.306;8.566;2022-09-23T02:57:25;98062.00;;;8.40
15062;BMP180;7630;50.306;8.566;2022-09-23T03:05:56;98045.00;;;8.90
15062;BMP180;7630;50.306;8.566;2022-09-23T03:10:27;98052.00;;;9.10
15062;BMP180;7630;50.306;8.566;2022-09-23T03:15:16;98048.00;;;8.90
15062;BMP180;7630;50.306;8.566;2022-09-23T03:18:39;98047.00;;;8.90
15062;BMP180;7630;50.306;8.566;2022-09-23T03:22:46;98066.00;;;9.00
15062;BMP180;7630;50.306;8.566;2022-09-23T03:26:48;98045.00;;;9.00
15062;BMP180;7630;50.306;8.566;2022-09-23T03:30:52;98049.00;;;8.80
15062;BMP180;7630;50.306;8.566;2022-09-23T03:34:58;98044.00;;;8.40
15062;BMP180;7630;50.306;8.566;2022-09-23T03:43:23;98041.00;;;9.10
15062;BMP180;7630;50.306;8.566;2022-09-23T03:47:26;98033.00;;;9.20
15062;BMP180;7630;50.306;8.566;2022-09-23T03:51:28;98028.00;;;9.20
15062;BMP180;7630;50.306;8.566;2022-09-23T03:55:29;98035.00;;;9.10
15062;BMP180;7630;50.306;8.566;2022-09-23T03:59:31;98029.00;;;9.00
15062;BMP180;7630;50.306;8.566;2022-09-23T04:03:32;98023.00;;;9.00
15062;BMP180;7630;50.306;8.566;2022-09-23T04:07:34;98017.00;;;9.00
15062;BMP180;7630;50.306;8.566;2022-09-23T04:11:35;98001.00;;;9.00
15062;BMP180;7630;50.306;8.566;2022-09-23T04:15:37;98005.00;;;9.00
15062;BMP180;7630;50.306;8.566;2022-09-23T04:19:40;98000.00;;;9.00
15062;BMP180;7630;50.306;8.566;2022-09-23T04:23:41;98005.00;;;9.20
15062;BMP180;7630;50.306;8.566;2022-09-23T04:27:42;98011.00;;;9.30
15062;BMP180;7630;50.306;8.566;2022-09-23T04:31:43;98015.00;;;9.10
15062;BMP180;7630;50.306;8.566;2022-09-23T04:35:48;98010.00;;;9.10
15062;BMP180;7630;50.306;8.566;2022-09-23T04:39:49;98002.00;;;9.30
15062;BMP180;7630;50.306;8.566;2022-09-23T04:43:51;98009.00;;;9.20
15062;BMP180;7630;50.306;8.566;2022-09-23T04:47:52;98004.00;;;9.10
15062;BMP180;7630;50.306;8.566;2022-09-23T04:51:53;98002.00;;;9.10
15062;BMP180;7630;50.306;8.566;2022-09-23T04:56:02;97991.00;;;9.00
15062;BMP180;7630;50.306;8.566;2022-09-23T05:00:05;97991.00;;;9.20
15062;BMP180;7630;50.306;8.566;2022-09-23T05:04:08;97992.00;;;9.10
15062;BMP180;7630;50.306;8.566;2022-09-23T05:08:10;97996.00;;;8.60
15062;BMP180;7630;50.306;8.566;2022-09-23T05:12:11;98002.00;;;8.40
15062;BMP180;7630;50.306;8.566;2022-09-23T05:16:13;98004.00;;;8.70
15062;BMP180;7630;50.306;8.566;2022-09-23T05:20:15;98004.00;;;8.70
15062;BMP180;7630;50.306;8.566;2022-09-23T05:24:16;98003.00;;;8.90
15062;BMP180;7630;50.306;8.566;2022-09-23T05:28:17;98006.00;;;9.10
15062;BMP180;7630;50.306;8.566;2022-09-23T05:32:20;98011.00;;;9.60
15062;BMP180;7630;50.306;8.566;2022-09-23T05:36:22;98012.00;;;9.40
15062;BMP180;7630;50.306;8.566;2022-09-23T05:40:23;98010.00;;;9.60
15062;BMP180;7630;50.306;8.566;2022-09-23T05:44:25;98007.00;;;9.70
15062;BMP180;7630;50.306;8.566;2022-09-23T05:48:26;98010.00;;;9.30
15062;BMP180;7630;50.306;8.566;2022-09-23T05:52:29;98006.00;;;10.30
15062;BMP180;7630;50.306;8.566;2022-09-23T05:56:32;98007.00;;;11.00
15062;BMP180;7630;50.306;8.566;2022-09-23T06:00:33;98011.00;;;11.10
15062;BMP180;7630;50.306;8.566;2022-09-23T06:04:35;98010.00;;;11.30
15062;BMP180;7630;50.306;8.566;2022-09-23T06:08:36;98014.00;;;11.60
15062;BMP180;7630;50.306;8.566;2022-09-23T06:12:37;98031.00;;;11.70
15062;BMP180;7630;50.306;8.566;2022-09-23T06:16:38;98016.00;;;11.90
15062;BMP180;7630;50.306;8.566;2022-09-23T06:20:39;98010.00;;;11.40
15062;BMP180;7630;50.306;8.566;2022-09-23T06:24:40;98004.00;;;11.90
15062;BMP180;7630;50.306;8.566;2022-09-23T06:28:43;98003.00;;;12.20
15062;BMP180;7630;50.306;8.566;2022-09-23T06:32:48;98005.00;;;12.30
15062;BMP180;7630;50.306;8.566;2022-09-23T06:36:51;97998.00;;;12.50
15062;BMP180;7630;50.306;8.566;2022-09-23T06:40:55;98002.00;;;12.90
15062;BMP180;7630;50.306;8.566;2022-09-23T06:44:57;97994.00;;;13.00
15062;BMP180;7630;50.306;8.566;2022-09-23T06:48:59;97992.00;;;13.00
15062;BMP180;7630;50.306;8.566;2022-09-23T06:53:02;98000.00;;;13.40
15062;BMP180;7630;50.306;8.566;2022-09-23T06:57:03;98002.00;;;13.90
15062;BMP180;7630;50.306;8.566;2022-09-23T07:01:06;97998.00;;;13.70
15062;BMP180;7630;50.306;8.566;2022-09-23T07:05:08;97996.00;;;13.70
15062;BMP180;7630;50.306;8.566;2022-09-23T07:09:10;97999.00;;;13.50
15062;BMP180;7630;50.306;8.566;2022-09-23T07:13:11;97999.00;;;13.50
15062;BMP180;7630;50.306;8.566;2022-09-23T07:17:14;98000.00;;;13.90
15062;BMP180;7630;50.306;8.566;2022-09-23T07:21:17;98001.00;;;14.70
15062;BMP180;7630;50.306;8.566;2022-09-23T07:25:18;97999.00;;;14.80
15062;BMP180;7630;50.306;8.566;2022-09-23T07:29:20;98001.00;;;14.10
15062;BMP180;7630;50.306;8.566;2022-09-23T07:33:21;97987.00;;;13.60
15062;BMP180;7630;50.306;8.566;2022-09-23T07:37:23;98001.00;;;14.30
15062;BMP180;7630;50.306;8.566;2022-09-23T07:41:25;97997.00;;;15.40
15062;BMP180;7630;50.306;8.566;2022-09-23T07:45:28;98000.00;;;14.50
15062;BMP180;7630;50.306;8.566;2022-09-23T07:49:33;98014.00;;;14.40
15062;BMP180;7630;50.306;8.566;2022-09-23T07:53:35;97995.00;;;15.40
15062;BMP180;7630;50.306;8.566;2022-09-23T07:57:36;97996.00;;;15.00
15062;BMP180;7630;50.306;8.566;2022-09-23T08:01:40;97997.00;;;15.70
15062;BMP180;7630;50.306;8.566;2022-09-23T08:05:42;98001.00;;;15.50
15062;BMP180;7630;50.306;8.566;2022-09-23T08:09:43;97990.00;;;16.10
15062;BMP180;7630;50.306;8.566;2022-09-23T08:13:44;97995.00;;;15.90
15062;BMP180;7630;50.306;8.566;2022-09-23T08:17:45;98002.00;;;14.30
15062;BMP180;7630;50.306;8.566;2022-09-23T08:21:46;97995.00;;;15.90
15062;BMP180;7630;50.306;8.566;2022-09-23T08:25:48;98003.00;;;15.60
15062;BMP180;7630;50.306;8.566;2022-09-23T08:29:49;98006.00;;;16.60
15062;BMP180;7630;50.306;8.566;2022-09-23T08:33:54;97991.00;;;16.50
15062;BMP180;7630;50.306;8.566;2022-09-23T08:37:56;97991.00;;;16.50
15062;BMP180;7630;50.306;8.566;2022-09-23T08:42:13;97999.00;;;17.10
15062;BMP180;7630;50.306;8.566;2022-09-23T08:46:14;98000.00;;;16.80
15062;BMP180;7630;50.306;8.566;2022-09-23T08:50:19;97996.00;;;17.60
15062;BMP180;7630;50.306;8.566;2022-09-23T08:54:21;97996.00;;;17.70
15062;BMP180;7630;50.306;8.566;2022-09-23T08:58:54;97986.00;;;18.00
15062;BMP180;7630;50.306;8.566;2022-09-23T09:02:55;97982.00;;;17.40
15062;BMP180;7630;50.306;8.566;2022-09-23T09:11:13;97976.00;;;17.80
15062;BMP180;7630;50.306;8.566;2022-09-23T09:19:38;97989.00;;;18.00
15062;BMP180;7630;50.306;8.566;2022-09-23T09:23:46;97897.00;;;17.80
15062;BMP180;7630;50.306;8.566;2022-09-23T09:27:47;97995.00;;;17.90
15062;BMP180;7630;50.306;8.566;2022-09-23T09:31:49;97988.00;;;17.60
15062;BMP180;7630;50.306;8.566;2022-09-23T09:40:10;97986.00;;;18.60
15062;BMP180;7630;50.306;8.566;2022-09-23T09:44:21;97978.00;;;19.00
15062;BMP180;7630;50.306;8.566;2022-09-23T09:48:24;97976.00;;;18.70
15062;BMP180;7630;50.306;8.566;2022-09-23T09:52:28;97960.00;;;18.80
15062;BMP180;7630;50.306;8.566;2022-09-23T09:56:31;97964.00;;;19.20
15062;BMP180;7630;50.306;8.566;2022-09-23T10:00:39;97961.00;;;19.30
15062;BMP180;7630;50.306;8.566;2022-09-23T10:04:42;97960.00;;;18.80
15062;BMP180;7630;50.306;8.566;2022-09-23T10:09:01;97956.00;;;18.80
15062;BMP180;7630;50.306;8.566;2022-09-23T10:12:52;97960.00;;;19.00
15062;BMP180;7630;50.306;8.566;2022-09-23T10:17:04;97960.00;;;18.00
15062;BMP180;7630;50.306;8.566;2022-09-23T10:21:09;97948.00;;;17.80
15062;BMP180;7630;50.306;8.566;2022-09-23T10:25:20;97949.00;;;18.10
15062;BMP180;7630;50.306;8.566;2022-09-23T10:29:30;97945.00;;;19.20
15062;BMP180;7630;50.306;8.566;2022-09-23T10:33:32;97940.00;;;18.90
15062;BMP180;7630;50.306;8.566;2022-09-23T10:41:41;97952.00;;;18.70
15062;BMP180;7630;50.306;8.566;2022-09-23T10:46:05;97957.00;;;19.70
15062;BMP180;7630;50.306;8.566;2022-09-23T10:54:59;97941.00;;;19.80
15062;BMP180;7630;50.306;8.566;2022-09-23T11:03:49;97939.00;;;19.80
15062;BMP180;7630;50.306;8.566;2022-09-23T11:38:21;97913.00;;;20.50
15062;BMP180;7630;50.306;8.566;2022-09-23T11:42:28;97902.00;;;20.90
15062;BMP180;7630;50.306;8.566;2022-09-23T11:50:38;97899.00;;;21.10
15062;BMP180;7630;50.306;8.566;2022-09-23T11:54:43;97890.00;;;21.40
15062;BMP180;7630;50.306;8.566;2022-09-23T11:58:49;97888.00;;;21.40
15062;BMP180;7630;50.306;8.566;2022-09-23T12:07:13;97886.00;;;21.60
15062;BMP180;7630;50.306;8.566;2022-09-23T12:15:49;97886.00;;;21.70
15062;BMP180;7630;50.306;8.566;2022-09-23T12:24:39;97881.00;;;21.80
15062;BMP180;7630;50.306;8.566;2022-09-23T12:28:39;97879.00;;;21.40
15062;BMP180;7630;50.306;8.566;2022-09-23T12:32:41;97877.00;;;22.80
15062;BMP180;7630;50.306;8.566;2022-09-23T12:36:43;97882.00;;;22.10
15062;BMP180;7630;50.306;8.566;2022-09-23T12:40:45;97871.00;;;21.80
15062;BMP180;7630;50.306;8.566;2022-09-23T12:44:48;97871.00;;;22.20
15062;BMP180;7630;50.306;8.566;2022-09-23T12:53:27;97862.00;;;21.50
15062;BMP180;7630;50.306;8.566;2022-09-23T13:01:17;97850.00;;;24.30
15062;BMP180;7630;50.306;8.566;2022-09-23T13:05:21;97857.00;;;24.30
15062;BMP180;7630;50.306;8.566;2022-09-23T13:09:45;97800.00;;;22.90
15062;BMP180;7630;50.306;8.566;2022-09-23T13:13:48;97848.00;;;21.20
15062;BMP180;7630;50.306;8.566;2022-09-23T13:17:50;97858.00;;;22.40
15062;BMP180;7630;50.306;8.566;2022-09-23T13:25:58;97845.00;;;23.50
15062;BMP180;7630;50.306;8.566;2022-09-23T13:30:04;97843.00;;;24.70
15062;BMP180;7630;50.306;8.566;2022-09-23T13:34:06;97837.00;;;22.20
15062;BMP180;7630;50.306;8.566;2022-09-23T13:38:20;97822.00;;;21.20
15062;BMP180;7630;50.306;8.566;2022-09-23T13:42:28;97819.00;;;22.90
15062;BMP180;7630;50.306;8.566;2022-09-23T13:46:37;97823.00;;;22.80
15062;BMP180;7630;50.306;8.566;2022-09-23T13:50:37;97831.00;;;22.70
15062;BMP180;7630;50.306;8.566;2022-09-23T13:54:48;97825.00;;;22.80
15062;BMP180;7630;50.306;8.566;2022-09-23T13:58:50;97816.00;;;23.30
15062;BMP180;7630;50.306;8.566;2022-09-23T14:02:52;97806.00;;;23.60
15062;BMP180;7630;50.306;8.566;2022-09-23T14:06:53;97807.00;;;23.60
15062;BMP180;7630;50.306;8.566;2022-09-23T14:10:57;97798.00;;;23.50
15062;BMP180;7630;50.306;8.566;2022-09-23T14:14:59;97797.00;;;23.60
15062;BMP180;7630;50.306;8.566;2022-09-23T14:19:01;97788.00;;;23.90
15062;BMP180;7630;50.306;8.566;2022-09-23T14:23:13;97783.00;;;23.30
15062;BMP180;7630;50.306;8.566;2022-09-23T14:27:13;97780.00;;;22.10
15062;BMP180;7630;50.306;8.566;2022-09-23T14:31:15;97774.00;;;22.00
15062;BMP180;7630;50.306;8.566;2022-09-23T14:35:23;97777.00;;;22.30
15062;BMP180;7630;50.306;8.566;2022-09-23T14:39:27;97778.00;;;22.00
15062;BMP180;7630;50.306;8.566;2022-09-23T14:43:29;97770.00;;;22.40
15062;BMP180;7630;50.306;8.566;2022-09-23T14:47:32;97776.00;;;22.10
15062;BMP180;7630;50.306;8.566;2022-09-23T15:00:15;97776.00;;;21.90
15062;BMP180;7630;50.306;8.566;2022-09-23T15:08:25;97775.00;;;22.00
15062;BMP180;7630;50.306;8.566;2022-09-23T15:12:28;97767.00;;;21.70
15062;BMP180;7630;50.306;8.566;2022-09-23T15:16:30;97758.00;;;21.30
15062;BMP180;7630;50.306;8.566;2022-09-23T15:20:31;97762.00;;;21.50
15062;BMP180;7630;50.306;8.566;2022-09-23T15:24:42;97767.00;;;20.90
15062;BMP180;7630;50.306;8.566;2022-09-23T15:28:45;97771.00;;;21.10
15062;BMP180;7630;50.306;8.566;2022-09-23T15:32:47;97756.00;;;20.70
15062;BMP180;7630;50.306;8.566;2022-09-23T15:36:48;97760.00;;;20.30
15062;BMP180;7630;50.306;8.566;2022-09-23T15:40:49;97753.00;;;20.40
15062;BMP180;7630;50.306;8.566;2022-09-23T15:44:51;97758.00;;;20.50
15062;BMP180;7630;50.306;8.566;2022-09-23T15:49:03;97742.00;;;20.10
15062;BMP180;7630;50.306;8.566;2022-09-23T15:53:06;97749.00;;;20.60
15062;BMP180;7630;50.306;8.566;2022-09-23T15:57:07;97740.00;;;19.80
15062;BMP180;7630;50.306;8.566;2022-09-23T16:01:10;97746.00;;;19.60
15062;BMP180;7630;50.306;8.566;2022-09-23T16:13:43;97736.00;;;20.40
15062;BMP180;7630;50.306;8.566;2022-09-23T16:17:44;97735.00;;;20.70
15062;BMP180;7630;50.306;8.566;2022-09-23T16:21:47;97748.00;;;20.70
15062;BMP180;7630;50.306;8.566;2022-09-23T16:25:48;97751.00;;;20.60
15062;BMP180;7630;50.306;8.566;2022-09-23T16:29:50;97743.00;;;20.70
15062;BMP180;7630;50.306;8.566;2022-09-23T16:33:52;97737.00;;;20.70
15062;BMP180;7630;50.306;8.566;2022-09-23T16:37:53;97738.00;;;20.60
15062;BMP180;7630;50.306;8.566;2022-09-23T16:41:54;97731.00;;;20.70
15062;BMP180;7630;50.306;8.566;2022-09-23T16:45:56;97742.00;;;19.80
15062;BMP180;7630;50.306;8.566;2022-09-23T16:49:57;97742.00;;;19.80
15062;BMP180;7630;50.306;8.566;2022-09-23T16:53:59;97741.00;;;20.10
15062;BMP180;7630;50.306;8.566;2022-09-23T16:58:00;97750.00;;;20.50
15062;BMP180;7630;50.306;8.566;2022-09-23T17:02:01;97761.00;;;20.30
15062;BMP180;7630;50.306;8.566;2022-09-23T17:06:20;97756.00;;;20.40
15062;BMP180;7630;50.306;8.566;2022-09-23T17:10:23;97753.00;;;20.20
15062;BMP180;7630;50.306;8.566;2022-09-23T17:14:24;97756.00;;;20.30
15062;BMP180;7630;50.306;8.566;2022-09-23T17:18:26;97733.00;;;20.10
15062;BMP180;7630;50.306;8.566;2022-09-23T17:22:28;97740.00;;;19.80
15062;BMP180;7630;50.306;8.566;2022-09-23T17:26:29;97754.00;;;19.60
15062;BMP180;7630;50.306;8.566;2022-09-23T17:30:30;97745.00;;;19.70
15062;BMP180;7630;50.306;8.566;2022-09-23T17:34:32;97744.00;;;19.80
15062;BMP180;7630;50.306;8.566;2022-09-23T17:38:33;97736.00;;;19.20
15062;BMP180;7630;50.306;8.566;2022-09-23T17:42:40;97743.00;;;18.70
15062;BMP180;7630;50.306;8.566;2022-09-23T17:46:42;97744.00;;;19.30
15062;BMP180;7630;50.306;8.566;2022-09-23T17:50:55;97741.00;;;19.30
15062;BMP180;7630;50.306;8.566;2022-09-23T17:54:56;97744.00;;;19.20
15062;BMP180;7630;50.306;8.566;2022-09-23T17:59:01;97765.00;;;18.80
15062;BMP180;7630;50.306;8.566;2022-09-23T18:03:02;97740.00;;;18.40
15062;BMP180;7630;50.306;8.566;2022-09-23T18:07:03;97736.00;;;17.10
15062;BMP180;7630;50.306;8.566;2022-09-23T18:11:19;97735.00;;;17.50
15062;BMP180;7630;50.306;8.566;2022-09-23T18:15:18;97741.00;;;18.60
15062;BMP180;7630;50.306;8.566;2022-09-23T18:19:21;97734.00;;;18.70
15062;BMP180;7630;50.306;8.566;2022-09-23T18:23:23;97733.00;;;18.50
15062;BMP180;7630;50.306;8.566;2022-09-23T18:27:26;97733.00;;;18.50
15062;BMP180;7630;50.306;8.566;2022-09-23T18:31:28;97732.00;;;18.40
15062;BMP180;7630;50.306;8.566;2022-09-23T18:35:31;97738.00;;;18.10
15062;BMP180;7630;50.306;8.566;2022-09-23T18:39:32;97731.00;;;18.20
15062;BMP180;7630;50.306;8.566;2022-09-23T18:43:33;97732.00;;;18.10
15062;BMP180;7630;50.306;8.566;2022-09-23T18:47:38;97729.00;;;18.10
15062;BMP180;7630;50.306;8.566;2022-09-23T18:51:57;97736.00;;;18.00
15062;BMP180;7630;50.306;8.566;2022-09-23T18:55:58;97749.00;;;17.90
15062;BMP180;7630;50.306;8.566;2022-09-23T19:00:02;97740.00;;;17.80
15062;BMP180;7630;50.306;8.566;2022-09-23T19:04:03;97740.00;;;17.50
15062;BMP180;7630;50.306;8.566;2022-09-23T19:08:06;97740.00;;;17.40
15062;BMP180;7630;50.306;8.566;2022-09-23T19:12:08;97743.00;;;17.30
15062;BMP180;7630;50.306;8.566;2022-09-23T19:16:11;97732.00;;;17.30
15062;BMP180;7630;50.306;8.566;2022-09-23T19:20:12;97738.00;;;17.40
15062;BMP180;7630;50.306;8.566;2022-09-23T19:24:13;97732.00;;;17.30
15062;BMP180;7630;50.306;8.566;2022-09-23T19:28:16;97729.00;;;16.70
15062;BMP180;7630;50.306;8.566;2022-09-23T19:32:17;97728.00;;;16.00
15062;BMP180;7630;50.306;8.566;2022-09-23T19:36:33;97731.00;;;16.60
15062;BMP180;7630;50.306;8.566;2022-09-23T19:40:37;97741.00;;;16.80
15062;BMP180;7630;50.306;8.566;2022-09-23T19:44:38;97717.00;;;16.70
15062;BMP180;7630;50.306;8.566;2022-09-23T19:48:40;97721.00;;;17.10
15062;BMP180;7630;50.306;8.566;2022-09-23T19:52:41;97722.00;;;16.80
15062;BMP180;7630;50.306;8.566;2022-09-23T19:56:42;97716.00;;;16.90
15062;BMP180;7630;50.306;8.566;2022-09-23T20:00:44;97709.00;;;16.50
15062;BMP180;7630;50.306;8.566;2022-09-23T20:04:45;97708.00;;;16.50
15062;BMP180;7630;50.306;8.566;2022-09-23T20:08:48;97702.00;;;16.50
15062;BMP180;7630;50.306;8.566;2022-09-23T20:12:49;97597.00;;;16.40
15062;BMP180;7630;50.306;8.566;2022-09-23T20:16:50;97696.00;;;16.30
15062;BMP180;7630;50.306;8.566;2022-09-23T20:20:53;97709.00;;;15.90
15062;BMP180;7630;50.306;8.566;2022-09-23T20:24:54;97703.00;;;15.80
15062;BMP180;7630;50.306;8.566;2022-09-23T20:28:55;97699.00;;;15.80
15062;BMP180;7630;50.306;8.566;2022-09-23T20:32:58;97698.00;;;15.70
15062;BMP180;7630;50.306;8.566;2022-09-23T20:37:00;97692.00;;;15.40
15062;BMP180;7630;50.306;8.566;2022-09-23T20:41:01;97691.00;;;15.50
15062;BMP180;7630;50.306;8.566;2022-09-23T20:45:03;97690.00;;;15.10
15062;BMP180;7630;50.306;8.566;2022-09-23T20:49:05;97681.00;;;15.40
15062;BMP180;7630;50.306;8.566;2022-09-23T20:53:08;97682.00;;;15.40
15062;BMP180;7630;50.306;8.566;2022-09-23T20:57:11;97683.00;;;15.10
15062;BMP180;7630;50.306;8.566;2022-09-23T21:01:13;97680.00;;;15.00
15062;BMP180;7630;50.306;8.566;2022-09-23T21:05:14;97684.00;;;15.00
15062;BMP180;7630;50.306;8.566;2022-09-23T21:09:17;97680.00;;;14.90
15062;BMP180;7630;50.306;8.566;2022-09-23T21:13:19;97673.00;;;14.80
15062;BMP180;7630;50.306;8.566;2022-09-23T21:17:21;97677.00;;;14.50
15062;BMP180;7630;50.306;8.566;2022-09-23T21:21:22;97677.00;;;14.50
15062;BMP180;7630;50.306;8.566;2022-09-23T21:25:24;97672.00;;;14.70
15062;BMP180;7630;50.306;8.566;2022-09-23T21:29:26;97679.00;;;14.80
15062;BMP180;7630;50.306;8.566;2022-09-23T21:33:28;97675.00;;;14.70
15062;BMP180;7630;50.306;8.566;2022-09-23T21:37:30;97671.00;;;14.70
15062;BMP180;7630;50.306;8.566;2022-09-23T21:41:32;97666.00;;;14.50
15062;BMP180;7630;50.306;8.566;2022-09-23T21:45:33;97658.00;;;14.40
15062;BMP180;7630;50.306;8.566;2022-09-23T21:49:34;97667.00;;;14.50
15062;BMP180;7630;50.306;8.566;2022-09-23T21:53:36;97661.00;;;14.40
15062;BMP180;7630;50.306;8.566;2022-09-23T21:57:38;97656.00;;;13.90
15062;BMP180;7630;50.306;8.566;2022-09-23T22:01:42;97658.00;;;14.10
15062;BMP180;7630;50.306;8.566;2022-09-23T22:05:44;97650.00;;;14.20
15062;BMP180;7630;50.306;8.566;2022-09-23T22:10:05;97665.00;;;14.00
15062;BMP180;7630;50.306;8.566;2022-09-23T22:14:09;97652.00;;;14.20
15062;BMP180;7630;50.306;8.566;2022-09-23T22:18:11;97644.00;;;14.10
15062;BMP180;7630;50.306;8.566;2022-09-23T22:22:14;97654.00;;;13.90
15062;BMP180;7630;50.306;8.566;2022-09-23T22:26:15;97669.00;;;13.90
15062;BMP180;7630;50.306;8.566;2022-09-23T22:30:16;97666.00;;;13.80
15062;BMP180;7630;50.306;8.566;2022-09-23T22:34:36;97649.00;;;13.50
15062;BMP180;7630;50.306;8.566;2022-09-23T22:38:39;97659.00;;;13.70
15062;BMP180;7630;50.306;8.566;2022-09-23T22:42:42;97652.00;;;13.30
15062;BMP180;7630;50.306;8.566;2022-09-23T22:46:44;97654.00;;;13.50
15062;BMP180;7630;50.306;8.566;2022-09-23T22:50:45;97657.00;;;13.90
15062;BMP180;7630;50.306;8.566;2022-09-23T22:54:47;97657.00;;;13.90
15062;BMP180;7630;50.306;8.566;2022-09-23T22:58:48;97650.00;;;13.90
15062;BMP180;7630;50.306;8.566;2022-09-23T23:02:49;97652.00;;;13.60
15062;BMP180;7630;50.306;8.566;2022-09-23T23:06:50;97661.00;;;14.00
15062;BMP180;7630;50.306;8.566;2022-09-23T23:10:51;97650.00;;;14.10
15062;BMP180;7630;50.306;8.566;2022-09-23T23:14:54;97652.00;;;14.10
15062;BMP180;7630;50.306;8.566;2022-09-23T23:18:56;97649.00;;;14.00
15062;BMP180;7630;50.306;8.566;2022-09-23T23:22:59;97645.00;;;13.90
15062;BMP180;7630;50.306;8.566;2022-09-23T23:27:01;97631.00;;;13.80
15062;BMP180;7630;50.306;8.566;2022-09-23T23:31:09;97628.00;;;13.90
15062;BMP180;7630;50.306;8.566;2022-09-23T23:35:07;97621.00;;;13.80
15062;BMP180;7630;50.306;8.566;2022-09-23T23:39:09;97620.00;;;13.70
15062;BMP180;7630;50.306;8.566;2022-09-23T23:43:10;97633.00;;;13.80
15062;BMP180;7630;50.306;8.566;2022-09-23T23:47:11;97635.00;;;13.80
15062;BMP180;7630;50.306;8.566;2022-09-23T23:51:13;97626.00;;;13.80
15062;BMP180;7630;50.306;8.566;2022-09-23T23:55:15;97620.00;;;13.70
15062;BMP180;7630;50.306;8.566;2022-09-23T23:59:16;97616.00;;;13.10
